sensor_id;sensor_type;location;lat;lon;timestamp;P1;durP1;ratioP1;P2;durP2;ratioP2
10309;SDS011;5200;43.236;27.986;2023-04-29T00:01:48;4.10;;;3.15;;
10309;SDS011;5200;43.236;27.986;2023-04-29T00:04:15;3.40;;;2.55;;
10309;SDS011;5200;43.236;27.986;2023-04-29T00:06:44;4.00;;;3.60;;
10309;SDS011;5200;43.236;27.986;2023-04-29T00:09:11;4.05;;;3.00;;
10309;SDS011;5200;43.236;27.986;2023-04-29T00:11:38;6.10;;;3.40;;
10309;SDS011;5200;43.236;27.986;2023-04-29T00:14:04;3.90;;;2.67;;
10309;SDS011;5200;43.236;27.986;2023-04-29T00:16:31;4.13;;;3.25;;
10309;SDS011;5200;43.236;27.986;2023-04-29T00:18:58;4.57;;;2.67;;
10309;SDS011;5200;43.236;27.986;2023-04-29T00:21:25;4.18;;;2.97;;
10309;SDS011;5200;43.236;27.986;2023-04-29T00:23:54;3.78;;;3.17;;
10309;SDS011;5200;43.236;27.986;2023-04-29T00:26:20;4.75;;;3.03;;
10309;SDS011;5200;43.236;27.986;2023-04-29T00:28:47;3.80;;;2.70;;
10309;SDS011;5200;43.236;27.986;2023-04-29T00:31:14;3.95;;;2.85;;
10309;SDS011;5200;43.236;27.986;2023-04-29T00:33:41;5.20;;;2.58;;
10309;SDS011;5200;43.236;27.986;2023-04-29T00:36:08;6.25;;;3.10;;
10309;SDS011;5200;43.236;27.986;2023-04-29T00:38:34;5.25;;;2.78;;
10309;SDS011;5200;43.236;27.986;2023-04-29T00:41:03;6.63;;;3.00;;
10309;SDS011;5200;43.236;27.986;2023-04-29T00:43:30;4.70;;;3.28;;
10309;SDS011;5200;43.236;27.986;2023-04-29T00:45:56;4.28;;;2.30;;
10309;SDS011;5200;43.236;27.986;2023-04-29T00:48:23;3.80;;;2.80;;
10309;SDS011;5200;43.236;27.986;2023-04-29T00:50:50;5.15;;;2.83;;
10309;SDS011;5200;43.236;27.986;2023-04-29T00:53:17;3.83;;;3.17;;
10309;SDS011;5200;43.236;27.986;2023-04-29T00:55:44;4.80;;;2.65;;
10309;SDS011;5200;43.236;27.986;2023-04-29T00:58:13;6.10;;;2.92;;
10309;SDS011;5200;43.236;27.986;2023-04-29T01:00:41;3.78;;;2.83;;
10309;SDS011;5200;43.236;27.986;2023-04-29T01:03:11;6.57;;;3.70;;
10309;SDS011;5200;43.236;27.986;2023-04-29T01:05:38;4.53;;;3.10;;
10309;SDS011;5200;43.236;27.986;2023-04-29T01:08:10;5.00;;;3.70;;
10309;SDS011;5200;43.236;27.986;2023-04-29T01:10:48;8.55;;;3.13;;
10309;SDS011;5200;43.236;27.986;2023-04-29T01:13:24;4.00;;;3.00;;
10309;SDS011;5200;43.236;27.986;2023-04-29T01:15:57;8.48;;;3.22;;
10309;SDS011;5200;43.236;27.986;2023-04-29T01:18:28;7.45;;;3.10;;
10309;SDS011;5200;43.236;27.986;2023-04-29T01:20:59;4.53;;;3.13;;
10309;SDS011;5200;43.236;27.986;2023-04-29T01:23:27;5.53;;;3.13;;
10309;SDS011;5200;43.236;27.986;2023-04-29T01:25:54;7.15;;;3.40;;
10309;SDS011;5200;43.236;27.986;2023-04-29T01:28:28;4.03;;;2.80;;
10309;SDS011;5200;43.236;27.986;2023-04-29T01:31:06;6.53;;;3.40;;
10309;SDS011;5200;43.236;27.986;2023-04-29T01:33:39;8.52;;;3.20;;
10309;SDS011;5200;43.236;27.986;2023-04-29T01:36:15;10.95;;;3.60;;
10309;SDS011;5200;43.236;27.986;2023-04-29T01:38:52;4.55;;;3.08;;
10309;SDS011;5200;43.236;27.986;2023-04-29T01:41:26;6.18;;;3.42;;
10309;SDS011;5200;43.236;27.986;2023-04-29T01:44:01;3.58;;;2.92;;
10309;SDS011;5200;43.236;27.986;2023-04-29T01:46:29;4.38;;;3.10;;
10309;SDS011;5200;43.236;27.986;2023-04-29T01:48:57;4.38;;;2.78;;
10309;SDS011;5200;43.236;27.986;2023-04-29T01:51:24;5.13;;;3.47;;
10309;SDS011;5200;43.236;27.986;2023-04-29T01:53:53;5.63;;;3.38;;
10309;SDS011;5200;43.236;27.986;2023-04-29T01:56:21;7.07;;;3.03;;
10309;SDS011;5200;43.236;27.986;2023-04-29T01:58:47;5.15;;;3.10;;
10309;SDS011;5200;43.236;27.986;2023-04-29T02:01:14;3.60;;;2.63;;
10309;SDS011;5200;43.236;27.986;2023-04-29T02:03:41;4.63;;;3.45;;
10309;SDS011;5200;43.236;27.986;2023-04-29T02:06:08;4.78;;;3.15;;
10309;SDS011;5200;43.236;27.986;2023-04-29T02:08:35;6.70;;;2.97;;
10309;SDS011;5200;43.236;27.986;2023-04-29T02:11:03;5.97;;;3.15;;
10309;SDS011;5200;43.236;27.986;2023-04-29T02:13:30;3.58;;;3.20;;
10309;SDS011;5200;43.236;27.986;2023-04-29T02:15:57;6.10;;;3.00;;
10309;SDS011;5200;43.236;27.986;2023-04-29T02:18:32;5.32;;;4.32;;
10309;SDS011;5200;43.236;27.986;2023-04-29T02:20:59;4.72;;;2.75;;
10309;SDS011;5200;43.236;27.986;2023-04-29T02:23:26;6.40;;;2.92;;
10309;SDS011;5200;43.236;27.986;2023-04-29T02:25:53;3.53;;;3.22;;
10309;SDS011;5200;43.236;27.986;2023-04-29T02:28:22;9.27;;;3.33;;
10309;SDS011;5200;43.236;27.986;2023-04-29T02:30:48;6.55;;;3.22;;
10309;SDS011;5200;43.236;27.986;2023-04-29T02:33:15;3.30;;;2.83;;
10309;SDS011;5200;43.236;27.986;2023-04-29T02:35:42;6.22;;;3.00;;
10309;SDS011;5200;43.236;27.986;2023-04-29T02:38:09;3.85;;;3.17;;
10309;SDS011;5200;43.236;27.986;2023-04-29T02:40:39;7.10;;;3.45;;
10309;SDS011;5200;43.236;27.986;2023-04-29T02:43:07;3.50;;;2.97;;
10309;SDS011;5200;43.236;27.986;2023-04-29T02:45:36;7.10;;;3.58;;
10309;SDS011;5200;43.236;27.986;2023-04-29T02:48:03;6.07;;;3.17;;
10309;SDS011;5200;43.236;27.986;2023-04-29T02:50:31;8.20;;;3.67;;
10309;SDS011;5200;43.236;27.986;2023-04-29T02:52:58;6.80;;;3.50;;
10309;SDS011;5200;43.236;27.986;2023-04-29T02:55:25;6.50;;;3.67;;
10309;SDS011;5200;43.236;27.986;2023-04-29T02:57:52;6.28;;;3.10;;
10309;SDS011;5200;43.236;27.986;2023-04-29T03:00:19;5.72;;;3.50;;
10309;SDS011;5200;43.236;27.986;2023-04-29T03:02:47;6.28;;;3.50;;
10309;SDS011;5200;43.236;27.986;2023-04-29T03:05:14;10.50;;;3.70;;
10309;SDS011;5200;43.236;27.986;2023-04-29T03:07:41;5.65;;;3.80;;
10309;SDS011;5200;43.236;27.986;2023-04-29T03:10:08;5.45;;;2.92;;
10309;SDS011;5200;43.236;27.986;2023-04-29T03:12:35;5.75;;;3.42;;
10309;SDS011;5200;43.236;27.986;2023-04-29T03:15:04;5.22;;;3.78;;
10309;SDS011;5200;43.236;27.986;2023-04-29T03:17:31;7.25;;;3.55;;
10309;SDS011;5200;43.236;27.986;2023-04-29T03:20:00;4.22;;;3.22;;
10309;SDS011;5200;43.236;27.986;2023-04-29T03:22:28;5.63;;;3.58;;
10309;SDS011;5200;43.236;27.986;2023-04-29T03:24:54;3.83;;;3.15;;
10309;SDS011;5200;43.236;27.986;2023-04-29T03:27:21;6.22;;;3.28;;
10309;SDS011;5200;43.236;27.986;2023-04-29T03:29:48;3.30;;;3.00;;
10309;SDS011;5200;43.236;27.986;2023-04-29T03:32:15;3.63;;;2.92;;
10309;SDS011;5200;43.236;27.986;2023-04-29T03:34:42;7.00;;;3.28;;
10309;SDS011;5200;43.236;27.986;2023-04-29T03:37:10;4.47;;;3.58;;
10309;SDS011;5200;43.236;27.986;2023-04-29T03:39:37;5.72;;;3.50;;
10309;SDS011;5200;43.236;27.986;2023-04-29T03:42:07;4.03;;;3.00;;
10309;SDS011;5200;43.236;27.986;2023-04-29T03:44:37;5.97;;;3.53;;
10309;SDS011;5200;43.236;27.986;2023-04-29T03:47:04;5.68;;;3.35;;
10309;SDS011;5200;43.236;27.986;2023-04-29T03:49:32;4.07;;;2.90;;
10309;SDS011;5200;43.236;27.986;2023-04-29T03:51:59;3.90;;;3.30;;
10309;SDS011;5200;43.236;27.986;2023-04-29T03:54:28;4.30;;;2.97;;
10309;SDS011;5200;43.236;27.986;2023-04-29T03:56:56;7.53;;;3.40;;
10309;SDS011;5200;43.236;27.986;2023-04-29T03:59:23;3.72;;;2.92;;
10309;SDS011;5200;43.236;27.986;2023-04-29T04:01:50;7.78;;;3.40;;
10309;SDS011;5200;43.236;27.986;2023-04-29T04:04:18;4.85;;;3.08;;
10309;SDS011;5200;43.236;27.986;2023-04-29T04:06:45;3.65;;;2.90;;
10309;SDS011;5200;43.236;27.986;2023-04-29T04:09:15;5.63;;;3.58;;
10309;SDS011;5200;43.236;27.986;2023-04-29T04:11:43;8.23;;;3.28;;
10309;SDS011;5200;43.236;27.986;2023-04-29T04:14:10;5.15;;;3.55;;
10309;SDS011;5200;43.236;27.986;2023-04-29T04:16:38;3.35;;;3.05;;
10309;SDS011;5200;43.236;27.986;2023-04-29T04:19:05;4.13;;;3.50;;
10309;SDS011;5200;43.236;27.986;2023-04-29T04:21:31;4.55;;;3.50;;
10309;SDS011;5200;43.236;27.986;2023-04-29T04:23:58;4.43;;;3.15;;
10309;SDS011;5200;43.236;27.986;2023-04-29T04:26:25;3.35;;;3.03;;
10309;SDS011;5200;43.236;27.986;2023-04-29T04:28:53;4.97;;;3.25;;
10309;SDS011;5200;43.236;27.986;2023-04-29T04:31:20;6.15;;;3.30;;
10309;SDS011;5200;43.236;27.986;2023-04-29T04:33:47;7.22;;;3.30;;
10309;SDS011;5200;43.236;27.986;2023-04-29T04:36:14;6.00;;;3.60;;
10309;SDS011;5200;43.236;27.986;2023-04-29T04:38:41;3.78;;;2.97;;
10309;SDS011;5200;43.236;27.986;2023-04-29T04:41:07;6.88;;;3.10;;
10309;SDS011;5200;43.236;27.986;2023-04-29T04:43:34;4.40;;;3.00;;
10309;SDS011;5200;43.236;27.986;2023-04-29T04:46:09;3.35;;;2.72;;
10309;SDS011;5200;43.236;27.986;2023-04-29T04:48:37;7.88;;;2.85;;
10309;SDS011;5200;43.236;27.986;2023-04-29T04:51:06;6.18;;;3.38;;
10309;SDS011;5200;43.236;27.986;2023-04-29T04:53:33;4.43;;;2.90;;
10309;SDS011;5200;43.236;27.986;2023-04-29T04:56:01;5.10;;;3.55;;
10309;SDS011;5200;43.236;27.986;2023-04-29T04:58:28;3.05;;;2.75;;
10309;SDS011;5200;43.236;27.986;2023-04-29T05:00:56;3.35;;;3.05;;
10309;SDS011;5200;43.236;27.986;2023-04-29T05:03:24;2.83;;;2.45;;
10309;SDS011;5200;43.236;27.986;2023-04-29T05:05:54;4.45;;;3.30;;
10309;SDS011;5200;43.236;27.986;2023-04-29T05:08:21;4.50;;;2.80;;
10309;SDS011;5200;43.236;27.986;2023-04-29T05:10:48;4.05;;;3.10;;
10309;SDS011;5200;43.236;27.986;2023-04-29T05:13:15;3.20;;;2.70;;
10309;SDS011;5200;43.236;27.986;2023-04-29T05:15:42;4.55;;;2.45;;
10309;SDS011;5200;43.236;27.986;2023-04-29T05:18:09;4.47;;;3.28;;
10309;SDS011;5200;43.236;27.986;2023-04-29T05:20:38;3.58;;;2.88;;
10309;SDS011;5200;43.236;27.986;2023-04-29T05:23:05;4.38;;;2.92;;
10309;SDS011;5200;43.236;27.986;2023-04-29T05:25:31;3.22;;;2.60;;
10309;SDS011;5200;43.236;27.986;2023-04-29T05:27:58;4.00;;;2.95;;
10309;SDS011;5200;43.236;27.986;2023-04-29T05:30:25;3.20;;;2.90;;
10309;SDS011;5200;43.236;27.986;2023-04-29T05:32:52;6.70;;;3.33;;
10309;SDS011;5200;43.236;27.986;2023-04-29T05:35:19;3.80;;;3.13;;
10309;SDS011;5200;43.236;27.986;2023-04-29T05:37:47;4.38;;;2.95;;
10309;SDS011;5200;43.236;27.986;2023-04-29T05:40:14;4.60;;;3.00;;
10309;SDS011;5200;43.236;27.986;2023-04-29T05:42:41;4.35;;;2.75;;
10309;SDS011;5200;43.236;27.986;2023-04-29T05:45:08;5.35;;;2.67;;
10309;SDS011;5200;43.236;27.986;2023-04-29T05:47:36;5.28;;;3.05;;
10309;SDS011;5200;43.236;27.986;2023-04-29T05:50:03;7.00;;;2.80;;
10309;SDS011;5200;43.236;27.986;2023-04-29T05:52:31;2.60;;;2.30;;
10309;SDS011;5200;43.236;27.986;2023-04-29T05:54:59;5.22;;;2.50;;
10309;SDS011;5200;43.236;27.986;2023-04-29T05:57:26;4.22;;;2.20;;
10309;SDS011;5200;43.236;27.986;2023-04-29T05:59:53;3.97;;;2.53;;
10309;SDS011;5200;43.236;27.986;2023-04-29T06:02:20;2.78;;;2.47;;
10309;SDS011;5200;43.236;27.986;2023-04-29T06:04:47;6.65;;;3.22;;
10309;SDS011;5200;43.236;27.986;2023-04-29T06:07:14;4.97;;;2.30;;
10309;SDS011;5200;43.236;27.986;2023-04-29T06:09:41;2.90;;;2.05;;
10309;SDS011;5200;43.236;27.986;2023-04-29T06:12:10;3.03;;;2.13;;
10309;SDS011;5200;43.236;27.986;2023-04-29T06:14:37;4.05;;;2.22;;
10309;SDS011;5200;43.236;27.986;2023-04-29T06:17:04;2.60;;;2.40;;
10309;SDS011;5200;43.236;27.986;2023-04-29T06:19:31;4.63;;;2.00;;
10309;SDS011;5200;43.236;27.986;2023-04-29T06:21:58;6.43;;;3.08;;
10309;SDS011;5200;43.236;27.986;2023-04-29T06:24:25;3.75;;;2.40;;
10309;SDS011;5200;43.236;27.986;2023-04-29T06:26:51;3.53;;;2.47;;
10309;SDS011;5200;43.236;27.986;2023-04-29T06:29:20;3.70;;;2.00;;
10309;SDS011;5200;43.236;27.986;2023-04-29T06:31:46;3.40;;;2.20;;
10309;SDS011;5200;43.236;27.986;2023-04-29T06:34:13;4.50;;;2.10;;
10309;SDS011;5200;43.236;27.986;2023-04-29T06:36:40;2.83;;;2.20;;
10309;SDS011;5200;43.236;27.986;2023-04-29T06:39:07;4.07;;;2.20;;
10309;SDS011;5200;43.236;27.986;2023-04-29T06:41:34;6.18;;;2.35;;
10309;SDS011;5200;43.236;27.986;2023-04-29T06:44:08;3.38;;;2.20;;
10309;SDS011;5200;43.236;27.986;2023-04-29T06:46:36;2.58;;;1.67;;
10309;SDS011;5200;43.236;27.986;2023-04-29T06:49:03;1.92;;;1.73;;
10309;SDS011;5200;43.236;27.986;2023-04-29T06:51:31;2.55;;;2.13;;
10309;SDS011;5200;43.236;27.986;2023-04-29T06:53:58;2.85;;;1.70;;
10309;SDS011;5200;43.236;27.986;2023-04-29T06:56:25;3.53;;;2.20;;
10309;SDS011;5200;43.236;27.986;2023-04-29T06:58:52;5.22;;;2.53;;
10309;SDS011;5200;43.236;27.986;2023-04-29T07:01:19;4.97;;;2.60;;
10309;SDS011;5200;43.236;27.986;2023-04-29T07:03:47;3.63;;;2.10;;
10309;SDS011;5200;43.236;27.986;2023-04-29T07:06:14;2.88;;;1.98;;
10309;SDS011;5200;43.236;27.986;2023-04-29T07:08:41;2.30;;;2.00;;
10309;SDS011;5200;43.236;27.986;2023-04-29T07:11:07;4.93;;;2.22;;
10309;SDS011;5200;43.236;27.986;2023-04-29T07:13:34;6.75;;;1.90;;
10309;SDS011;5200;43.236;27.986;2023-04-29T07:16:01;3.92;;;2.30;;
10309;SDS011;5200;43.236;27.986;2023-04-29T07:18:28;2.78;;;2.50;;
10309;SDS011;5200;43.236;27.986;2023-04-29T07:21:00;4.13;;;2.58;;
10309;SDS011;5200;43.236;27.986;2023-04-29T07:23:27;4.78;;;2.50;;
10309;SDS011;5200;43.236;27.986;2023-04-29T07:25:54;7.05;;;2.38;;
10309;SDS011;5200;43.236;27.986;2023-04-29T07:28:21;5.90;;;2.83;;
10309;SDS011;5200;43.236;27.986;2023-04-29T07:30:48;3.20;;;2.22;;
10309;SDS011;5200;43.236;27.986;2023-04-29T07:33:14;4.18;;;2.40;;
10309;SDS011;5200;43.236;27.986;2023-04-29T07:35:42;3.17;;;2.10;;
10309;SDS011;5200;43.236;27.986;2023-04-29T07:38:10;2.75;;;2.15;;
10309;SDS011;5200;43.236;27.986;2023-04-29T07:40:37;4.68;;;2.40;;
10309;SDS011;5200;43.236;27.986;2023-04-29T07:43:03;4.68;;;2.20;;
10309;SDS011;5200;43.236;27.986;2023-04-29T07:45:31;5.82;;;2.30;;
10309;SDS011;5200;43.236;27.986;2023-04-29T07:47:58;4.10;;;2.17;;
10309;SDS011;5200;43.236;27.986;2023-04-29T07:50:25;4.45;;;2.20;;
10309;SDS011;5200;43.236;27.986;2023-04-29T07:52:52;4.13;;;2.60;;
10309;SDS011;5200;43.236;27.986;2023-04-29T07:55:20;5.43;;;3.05;;
10309;SDS011;5200;43.236;27.986;2023-04-29T07:57:47;4.32;;;2.60;;
10309;SDS011;5200;43.236;27.986;2023-04-29T08:00:14;3.08;;;2.25;;
10309;SDS011;5200;43.236;27.986;2023-04-29T08:02:41;3.28;;;2.50;;
10309;SDS011;5200;43.236;27.986;2023-04-29T08:05:08;5.55;;;2.25;;
10309;SDS011;5200;43.236;27.986;2023-04-29T08:07:35;4.55;;;2.60;;
10309;SDS011;5200;43.236;27.986;2023-04-29T08:10:02;2.78;;;2.20;;
10309;SDS011;5200;43.236;27.986;2023-04-29T08:12:31;5.65;;;3.28;;
10309;SDS011;5200;43.236;27.986;2023-04-29T08:14:58;3.00;;;2.72;;
10309;SDS011;5200;43.236;27.986;2023-04-29T08:17:25;2.22;;;1.98;;
10309;SDS011;5200;43.236;27.986;2023-04-29T08:19:52;6.18;;;2.20;;
10309;SDS011;5200;43.236;27.986;2023-04-29T08:22:18;2.85;;;2.13;;
10309;SDS011;5200;43.236;27.986;2023-04-29T08:24:45;2.88;;;2.40;;
10309;SDS011;5200;43.236;27.986;2023-04-29T08:27:12;4.32;;;2.75;;
10309;SDS011;5200;43.236;27.986;2023-04-29T08:29:42;5.28;;;2.78;;
10309;SDS011;5200;43.236;27.986;2023-04-29T08:32:09;3.45;;;1.73;;
10309;SDS011;5200;43.236;27.986;2023-04-29T08:34:36;4.80;;;2.38;;
10309;SDS011;5200;43.236;27.986;2023-04-29T08:37:03;2.88;;;2.38;;
10309;SDS011;5200;43.236;27.986;2023-04-29T08:39:29;5.47;;;2.40;;
10309;SDS011;5200;43.236;27.986;2023-04-29T08:41:56;3.50;;;2.25;;
10309;SDS011;5200;43.236;27.986;2023-04-29T08:44:24;6.82;;;2.30;;
10309;SDS011;5200;43.236;27.986;2023-04-29T08:46:52;3.58;;;2.30;;
10309;SDS011;5200;43.236;27.986;2023-04-29T08:49:20;5.65;;;2.17;;
10309;SDS011;5200;43.236;27.986;2023-04-29T08:51:47;3.35;;;2.53;;
10309;SDS011;5200;43.236;27.986;2023-04-29T08:54:15;3.97;;;2.45;;
10309;SDS011;5200;43.236;27.986;2023-04-29T08:56:42;2.70;;;1.75;;
10309;SDS011;5200;43.236;27.986;2023-04-29T08:59:11;5.97;;;2.03;;
10309;SDS011;5200;43.236;27.986;2023-04-29T09:01:39;4.18;;;2.20;;
10309;SDS011;5200;43.236;27.986;2023-04-29T09:04:11;4.22;;;2.28;;
10309;SDS011;5200;43.236;27.986;2023-04-29T09:06:46;4.47;;;2.58;;
10309;SDS011;5200;43.236;27.986;2023-04-29T09:09:13;5.43;;;2.55;;
10309;SDS011;5200;43.236;27.986;2023-04-29T09:11:41;2.63;;;2.00;;
10309;SDS011;5200;43.236;27.986;2023-04-29T09:14:08;2.33;;;1.80;;
10309;SDS011;5200;43.236;27.986;2023-04-29T09:16:35;3.63;;;2.25;;
10309;SDS011;5200;43.236;27.986;2023-04-29T09:19:03;2.25;;;1.75;;
10309;SDS011;5200;43.236;27.986;2023-04-29T09:21:31;3.00;;;2.10;;
10309;SDS011;5200;43.236;27.986;2023-04-29T09:23:59;2.88;;;2.20;;
10309;SDS011;5200;43.236;27.986;2023-04-29T09:26:32;3.08;;;1.85;;
10309;SDS011;5200;43.236;27.986;2023-04-29T09:29:06;4.65;;;1.80;;
10309;SDS011;5200;43.236;27.986;2023-04-29T09:31:35;3.05;;;2.13;;
10309;SDS011;5200;43.236;27.986;2023-04-29T09:34:03;4.30;;;1.90;;
10309;SDS011;5200;43.236;27.986;2023-04-29T09:36:38;3.25;;;2.35;;
10309;SDS011;5200;43.236;27.986;2023-04-29T09:39:10;3.03;;;2.03;;
10309;SDS011;5200;43.236;27.986;2023-04-29T09:41:58;4.63;;;2.15;;
10309;SDS011;5200;43.236;27.986;2023-04-29T09:44:27;5.60;;;2.17;;
10309;SDS011;5200;43.236;27.986;2023-04-29T09:46:55;3.95;;;2.28;;
10309;SDS011;5200;43.236;27.986;2023-04-29T09:49:23;3.80;;;2.03;;
10309;SDS011;5200;43.236;27.986;2023-04-29T09:51:52;5.47;;;1.80;;
10309;SDS011;5200;43.236;27.986;2023-04-29T09:54:20;3.40;;;2.42;;
10309;SDS011;5200;43.236;27.986;2023-04-29T09:56:48;4.57;;;2.30;;
10309;SDS011;5200;43.236;27.986;2023-04-29T09:59:16;8.18;;;2.50;;
10309;SDS011;5200;43.236;27.986;2023-04-29T10:01:43;3.70;;;2.22;;
10309;SDS011;5200;43.236;27.986;2023-04-29T10:04:12;3.15;;;2.20;;
10309;SDS011;5200;43.236;27.986;2023-04-29T10:06:41;8.65;;;2.10;;
10309;SDS011;5200;43.236;27.986;2023-04-29T10:09:11;5.38;;;2.17;;
10309;SDS011;5200;43.236;27.986;2023-04-29T10:11:41;6.05;;;2.28;;
10309;SDS011;5200;43.236;27.986;2023-04-29T10:14:09;6.53;;;2.47;;
10309;SDS011;5200;43.236;27.986;2023-04-29T10:16:39;2.45;;;2.00;;
10309;SDS011;5200;43.236;27.986;2023-04-29T10:19:14;4.05;;;1.80;;
10309;SDS011;5200;43.236;27.986;2023-04-29T10:21:44;3.75;;;2.08;;
10309;SDS011;5200;43.236;27.986;2023-04-29T10:24:15;4.40;;;2.30;;
10309;SDS011;5200;43.236;27.986;2023-04-29T10:26:43;2.38;;;2.15;;
10309;SDS011;5200;43.236;27.986;2023-04-29T10:29:12;3.25;;;2.13;;
10309;SDS011;5200;43.236;27.986;2023-04-29T10:31:40;3.58;;;2.03;;
10309;SDS011;5200;43.236;27.986;2023-04-29T10:34:09;3.63;;;2.00;;
10309;SDS011;5200;43.236;27.986;2023-04-29T10:36:38;4.57;;;2.22;;
10309;SDS011;5200;43.236;27.986;2023-04-29T10:39:06;8.93;;;2.58;;
10309;SDS011;5200;43.236;27.986;2023-04-29T10:41:43;3.50;;;2.35;;
10309;SDS011;5200;43.236;27.986;2023-04-29T10:44:11;2.90;;;2.42;;
10309;SDS011;5200;43.236;27.986;2023-04-29T10:46:38;3.28;;;1.92;;
10309;SDS011;5200;43.236;27.986;2023-04-29T10:49:05;3.35;;;1.85;;
10309;SDS011;5200;43.236;27.986;2023-04-29T10:51:33;4.63;;;2.08;;
10309;SDS011;5200;43.236;27.986;2023-04-29T10:54:01;3.35;;;2.13;;
10309;SDS011;5200;43.236;27.986;2023-04-29T10:56:34;3.10;;;2.47;;
10309;SDS011;5200;43.236;27.986;2023-04-29T10:59:09;3.33;;;2.38;;
10309;SDS011;5200;43.236;27.986;2023-04-29T11:01:45;4.63;;;2.22;;
10309;SDS011;5200;43.236;27.986;2023-04-29T11:04:13;6.65;;;2.10;;
10309;SDS011;5200;43.236;27.986;2023-04-29T11:06:41;2.95;;;1.77;;
10309;SDS011;5200;43.236;27.986;2023-04-29T11:09:12;3.33;;;2.13;;
10309;SDS011;5200;43.236;27.986;2023-04-29T11:11:43;5.93;;;2.40;;
10309;SDS011;5200;43.236;27.986;2023-04-29T11:14:15;3.72;;;2.25;;
10309;SDS011;5200;43.236;27.986;2023-04-29T11:16:47;4.15;;;2.40;;
10309;SDS011;5200;43.236;27.986;2023-04-29T11:19:16;6.95;;;2.53;;
10309;SDS011;5200;43.236;27.986;2023-04-29T11:21:43;2.50;;;2.00;;
10309;SDS011;5200;43.236;27.986;2023-04-29T11:24:11;4.22;;;2.10;;
10309;SDS011;5200;43.236;27.986;2023-04-29T11:26:40;2.28;;;2.03;;
10309;SDS011;5200;43.236;27.986;2023-04-29T11:29:07;3.45;;;2.17;;
10309;SDS011;5200;43.236;27.986;2023-04-29T11:31:36;6.93;;;2.15;;
10309;SDS011;5200;43.236;27.986;2023-04-29T11:34:03;5.68;;;2.00;;
10309;SDS011;5200;43.236;27.986;2023-04-29T11:36:30;1.73;;;1.63;;
10309;SDS011;5200;43.236;27.986;2023-04-29T11:38:58;3.05;;;1.95;;
10309;SDS011;5200;43.236;27.986;2023-04-29T11:41:25;2.97;;;2.30;;
10309;SDS011;5200;43.236;27.986;2023-04-29T11:43:56;3.88;;;2.10;;
10309;SDS011;5200;43.236;27.986;2023-04-29T11:46:24;5.82;;;2.13;;
10309;SDS011;5200;43.236;27.986;2023-04-29T11:48:56;7.88;;;2.10;;
10309;SDS011;5200;43.236;27.986;2023-04-29T11:51:23;4.40;;;2.30;;
10309;SDS011;5200;43.236;27.986;2023-04-29T11:53:51;2.78;;;1.70;;
10309;SDS011;5200;43.236;27.986;2023-04-29T11:56:20;4.22;;;2.20;;
10309;SDS011;5200;43.236;27.986;2023-04-29T11:58:48;4.72;;;2.05;;
10309;SDS011;5200;43.236;27.986;2023-04-29T12:01:15;3.72;;;1.80;;
10309;SDS011;5200;43.236;27.986;2023-04-29T12:03:42;5.28;;;2.22;;
10309;SDS011;5200;43.236;27.986;2023-04-29T12:06:12;4.07;;;2.10;;
10309;SDS011;5200;43.236;27.986;2023-04-29T12:08:40;3.33;;;2.15;;
10309;SDS011;5200;43.236;27.986;2023-04-29T12:11:06;2.60;;;2.13;;
10309;SDS011;5200;43.236;27.986;2023-04-29T12:13:33;3.95;;;2.42;;
10309;SDS011;5200;43.236;27.986;2023-04-29T12:16:01;4.40;;;2.03;;
10309;SDS011;5200;43.236;27.986;2023-04-29T12:18:29;5.88;;;1.75;;
10309;SDS011;5200;43.236;27.986;2023-04-29T12:20:56;2.10;;;1.90;;
10309;SDS011;5200;43.236;27.986;2023-04-29T12:23:24;2.60;;;2.08;;
10309;SDS011;5200;43.236;27.986;2023-04-29T12:25:52;4.25;;;2.20;;
10309;SDS011;5200;43.236;27.986;2023-04-29T12:28:20;3.17;;;1.95;;
10309;SDS011;5200;43.236;27.986;2023-04-29T12:30:48;4.05;;;2.38;;
10309;SDS011;5200;43.236;27.986;2023-04-29T12:33:17;3.40;;;2.22;;
10309;SDS011;5200;43.236;27.986;2023-04-29T12:35:46;2.15;;;1.85;;
10309;SDS011;5200;43.236;27.986;2023-04-29T12:38:20;3.05;;;1.70;;
10309;SDS011;5200;43.236;27.986;2023-04-29T12:40:49;3.65;;;2.00;;
10309;SDS011;5200;43.236;27.986;2023-04-29T12:43:16;4.50;;;1.92;;
10309;SDS011;5200;43.236;27.986;2023-04-29T12:45:43;2.35;;;2.08;;
10309;SDS011;5200;43.236;27.986;2023-04-29T12:48:10;7.65;;;2.60;;
10309;SDS011;5200;43.236;27.986;2023-04-29T12:50:38;4.00;;;1.73;;
10309;SDS011;5200;43.236;27.986;2023-04-29T12:53:05;3.28;;;2.10;;
10309;SDS011;5200;43.236;27.986;2023-04-29T12:55:34;3.28;;;1.80;;
10309;SDS011;5200;43.236;27.986;2023-04-29T12:58:04;3.47;;;1.95;;
10309;SDS011;5200;43.236;27.986;2023-04-29T13:00:31;4.55;;;2.20;;
10309;SDS011;5200;43.236;27.986;2023-04-29T13:02:58;2.85;;;2.00;;
10309;SDS011;5200;43.236;27.986;2023-04-29T13:05:25;4.72;;;1.80;;
10309;SDS011;5200;43.236;27.986;2023-04-29T13:07:54;8.98;;;1.88;;
10309;SDS011;5200;43.236;27.986;2023-04-29T13:10:22;3.60;;;1.98;;
10309;SDS011;5200;43.236;27.986;2023-04-29T13:12:48;4.05;;;2.10;;
10309;SDS011;5200;43.236;27.986;2023-04-29T13:15:17;1.92;;;1.73;;
10309;SDS011;5200;43.236;27.986;2023-04-29T13:17:44;6.68;;;2.72;;
10309;SDS011;5200;43.236;27.986;2023-04-29T13:20:11;4.05;;;2.00;;
10309;SDS011;5200;43.236;27.986;2023-04-29T13:22:40;3.25;;;1.77;;
10309;SDS011;5200;43.236;27.986;2023-04-29T13:25:07;1.90;;;1.77;;
10309;SDS011;5200;43.236;27.986;2023-04-29T13:27:34;3.45;;;2.00;;
10309;SDS011;5200;43.236;27.986;2023-04-29T13:30:01;3.92;;;1.63;;
10309;SDS011;5200;43.236;27.986;2023-04-29T13:32:30;2.83;;;1.83;;
10309;SDS011;5200;43.236;27.986;2023-04-29T13:34:56;8.15;;;2.63;;
10309;SDS011;5200;43.236;27.986;2023-04-29T13:37:24;2.90;;;1.98;;
10309;SDS011;5200;43.236;27.986;2023-04-29T13:39:51;6.18;;;2.00;;
10309;SDS011;5200;43.236;27.986;2023-04-29T13:42:17;3.75;;;1.83;;
10309;SDS011;5200;43.236;27.986;2023-04-29T13:44:44;2.17;;;1.30;;
10309;SDS011;5200;43.236;27.986;2023-04-29T13:47:11;5.57;;;1.67;;
10309;SDS011;5200;43.236;27.986;2023-04-29T13:49:40;6.55;;;1.83;;
10309;SDS011;5200;43.236;27.986;2023-04-29T13:52:08;3.45;;;1.98;;
10309;SDS011;5200;43.236;27.986;2023-04-29T13:54:35;4.32;;;2.03;;
10309;SDS011;5200;43.236;27.986;2023-04-29T13:57:02;1.90;;;1.60;;
10309;SDS011;5200;43.236;27.986;2023-04-29T13:59:29;3.22;;;1.50;;
10309;SDS011;5200;43.236;27.986;2023-04-29T14:01:56;3.85;;;1.80;;
10309;SDS011;5200;43.236;27.986;2023-04-29T14:04:23;4.00;;;1.55;;
10309;SDS011;5200;43.236;27.986;2023-04-29T14:06:52;5.00;;;1.80;;
10309;SDS011;5200;43.236;27.986;2023-04-29T14:09:19;7.05;;;1.90;;
10309;SDS011;5200;43.236;27.986;2023-04-29T14:11:46;5.72;;;2.08;;
10309;SDS011;5200;43.236;27.986;2023-04-29T14:14:13;4.93;;;1.80;;
10309;SDS011;5200;43.236;27.986;2023-04-29T14:16:40;5.80;;;2.10;;
10309;SDS011;5200;43.236;27.986;2023-04-29T14:19:07;3.90;;;1.80;;
10309;SDS011;5200;43.236;27.986;2023-04-29T14:21:35;4.72;;;1.95;;
10309;SDS011;5200;43.236;27.986;2023-04-29T14:24:03;4.57;;;1.58;;
10309;SDS011;5200;43.236;27.986;2023-04-29T14:26:30;4.50;;;1.80;;
10309;SDS011;5200;43.236;27.986;2023-04-29T14:28:57;3.72;;;1.80;;
10309;SDS011;5200;43.236;27.986;2023-04-29T14:31:25;2.50;;;1.70;;
10309;SDS011;5200;43.236;27.986;2023-04-29T14:33:53;6.68;;;2.00;;
10309;SDS011;5200;43.236;27.986;2023-04-29T14:36:20;2.95;;;1.75;;
10309;SDS011;5200;43.236;27.986;2023-04-29T14:38:47;6.53;;;2.10;;
10309;SDS011;5200;43.236;27.986;2023-04-29T14:41:15;4.18;;;1.73;;
10309;SDS011;5200;43.236;27.986;2023-04-29T14:43:42;3.13;;;1.50;;
10309;SDS011;5200;43.236;27.986;2023-04-29T14:46:09;3.55;;;1.42;;
10309;SDS011;5200;43.236;27.986;2023-04-29T14:48:35;2.92;;;1.67;;
10309;SDS011;5200;43.236;27.986;2023-04-29T14:51:02;4.97;;;1.60;;
10309;SDS011;5200;43.236;27.986;2023-04-29T14:53:30;2.28;;;1.60;;